首页
METAR-TAF:

METAR-TAF

机场 :

Fort Riley, 堪薩斯州, 美国

纬度: 39-06N, 经度: 096-46W, 海拔: 325米

当前天气观测

该预报发布于55分钟前的20:56 UTC
风速6节,风向东北
温度 4°C
湿度 70%
气压 1020 hPa
能見度: 16.1公里
阴天层高于2000英尺

METAR: KFRI 292056Z 05006KT 10SM OVC020 04/M01 A3013 RMK AO2A SLP211 T00421010 57019

时间: 15:51 (21:51 UTC)

预报

该预报发布于51分钟前的21:00 UTC
预报有效从29日的 21点(UTC)到 31日的 03点(UTC)
风速6节,风向北转东北
能见度10公里或以上
阴天层高于2000英尺
成为
从 30日的 06点(UTC)到 30日的 07点(UTC)
风速6节,风向
能見度: 8000
阴天层高于800英尺
轻雾
成为
从 30日的 15点(UTC)到 30日的 16点(UTC)
风速9节,风向南转西南
能见度10公里或以上
多云层高于1500英尺
阴天层高于8000英尺
成为
从 30日的 18点(UTC)到 30日的 19点(UTC)
风速9节,风向南转西南
能见度10公里或以上
散云层高于8000英尺
成为
从 30日的 23点(UTC)到 30日的 24点(UTC)
风速6节,风向
能见度10公里或以上
阴天层高于1500英尺

TAF: KFRI 292100Z 2921/3103 02006KT 9999 OVC020 650201 QNH3013INS BECMG 3006/3007 19006KT 8000 BR OVC008 QNH3012INS BECMG 3015/3016 20009KT 9999 NSW BKN015 OVC080 620151 620802 QNH3010INS BECMG 3018/3019 21009KT 9999 SCT080 QNH3003INS BECMG 3023/3024 18006KT 9999 OVC015 QNH3006INS TX05/3021Z TNM01/3006Z

超过4000个机场的气象观测和天气预报(METAR&TAF报告)。

可查询的气象台以黄色和红色小点在地图上表示。

将鼠标移到小点上方,可查看气象台名称。

然后点击查看天气观测和预报。

如需切换地图:点击带黑十字的绿色按钮放大地图;点击带横线的绿色按钮缩小地图;或者点击绿色箭头查看邻近地区的地图。


METAR-TAF: